FW4061 Weather Reports


Display with metric or nautical units.
time (UTC)temp
F
wind
direction
speed
MPH
gust
MPH
rain 1hr
in
rain 24hr
in
rain mn
in
humidity
%
barometer
mb
20200919005951 80 215 0.0 4.0 0.00 0.00 0.00 56 1016.8
20200918235952 82 227 3.0 12.0 0.00 0.00 0.00 52 1016.3
20200918225954 83 225 4.0 12.0 0.00 0.00 0.00 51 1016.1
20200918215953 84 222 4.0 12.0 0.00 0.00 0.00 49 1016.2
20200918205951 84 213 4.0 12.0 0.00 0.00 0.00 48 1016.8
20200918195952 84 230 4.0 12.0 0.00 0.00 0.00 52 1017.2
20200918185952 82 236 7.0 20.0 0.00 0.00 0.00 56 1017.9
20200918175958 82 227 3.0 14.0 0.00 0.00 0.00 60 1018.5
20200918165953 80 223 4.0 11.0 0.00 0.00 0.00 62 1019.1
20200918155953 79 249 3.0 12.0 0.00 0.00 0.00 67 1019.2
20200918145953 77 237 2.0 11.0 0.00 0.00 0.00 81 1018.9
20200918135952 74 231 0.0 9.0 0.00 0.00 0.00 86 1018.3
20200918125952 71 0 0.0 0.0 0.00 0.00 0.00 91 1017.7
20200918115954 70 0 0.0 0.0 0.00 0.00 0.00 91 1017.3
20200918105953 71 176 0.0 3.0 0.00 0.00 0.00 91 1016.8
20200918095953 71 221 0.0 2.0 0.00 0.00 0.00 90 1016.7
20200918085954 71 237 0.0 1.0 0.00 0.00 0.00 89 1016.8
20200918075952 71 0 0.0 0.0 0.00 0.00 0.00 88 1016.6
20200918065953 72 160 0.0 3.0 0.00 0.00 0.00 86 1016.3
20200918055954 72 0 0.0 0.0 0.00 0.00 0.00 84 1016.2
20200918045955 74 0 0.0 0.0 0.00 0.00 0.00 82 1016.6
20200918035954 75 0 0.0 0.0 0.00 0.00 0.00 80 1016.8
20200918025954 76 0 0.0 0.0 0.00 0.00 0.00 78 1016.7
20200918015958 77 239 1.0 8.0 0.00 0.00 0.00 75 1016.0